x

Ne St Martin - 330 Nm Ne St Martin Is (41044) Wave Buoy

7:50pm - Wed 17th Dec 2014 All times are UTC.

  • Sig Wave height 5.9ft
  • Swell Direction
  • Peak Period 10s
  • Average Period 7s
  • Wind
    13mph, 16mph gusts
  • Sea Temp 80°f
  • Air Temp 78°f
  • Sea Pressure 1015.7mb

More Historic Weather Station data

Upgrade to MSW Pro to gain access to the past 30 days of data for over 8000 Wavebouys and Weather Stations around the globe.

Join Pro

Comparision Forecast

View Surf forecast
   
Wed 12/17 7:50pm 6ft 10s 7s 13 16 mph 1015.7mb 80f 78f
6:50pm 6ft 9s 7s 11 16 mph 1015.6mb 80f 78f
5:50pm 6ft 10s 7s 11 13 mph 1016mb 80f 78f
4:50pm 5.5ft 10s 7s 11 16 mph 1016.7mb 80f 78f
3:50pm 7ft 10s 7s 11 13 mph 1017.6mb 80f 78f
2:50pm 6ft 10s 7s 11 16 mph 1018.3mb 80f 78f
1:50pm 5.5ft 10s 7s 11 13 mph 1018.8mb 80f 78f
12:50pm 6ft 10s 7s 11 16 mph 1018.5mb 80f 78f
11:50am 6ft 10s 7s 11 16 mph 1018mb 80f 78f
10:50am 6ft 10s 7s 11 13 mph 1017.5mb 80f 78f
9:50am 5.5ft 10s 7s 11 16 mph 1016.9mb 80f 77f
8:50am 5.5ft 10s 7s 13 16 mph 1016.5mb 80f 78f
7:50am 5ft 9s 6s 13 16 mph 1016.5mb 80f 78f
6:50am 6ft 10s 7s 13 16 mph 1016.6mb 80f 78f
5:50am 5ft 10s 7s 16 18 mph 1017.1mb 80f 78f
4:50am 5ft 9s 6s 16 18 mph 1017.5mb 80f 78f
3:50am 5ft 9s 6s 13 16 mph 1018mb 80f 78f
2:50am 5ft 9s 6s 13 16 mph 1018.5mb 80f 78f
1:50am 5ft 9s 7s 13 16 mph 1018.7mb 80f 78f
12:50am 5ft 10s 6s 13 16 mph 1018.6mb 80f 78f
Tue 12/16 11:50pm 5ft 9s 6s 13 18 mph 1018.4mb 80f 78f
10:50pm 5ft 10s 7s 11 13 mph 1017.9mb 80f 78f
9:50pm 5.5ft 10s 7s 13 16 mph 1017.3mb 80f 78f
8:50pm 5ft 10s 6s 13 16 mph 1016.9mb 80f 78f
7:50pm 5.5ft 10s 6s 11 16 mph 1016.4mb 80f 78f
6:50pm 5.5ft 9s 6s 11 16 mph 1016.1mb 80f 78f
5:50pm 5.5ft 10s 6s 13 16 mph 1016.2mb 80f 78f
4:50pm 5.5ft 10s 6s 13 16 mph 1016.7mb 80f 78f
3:50pm 6ft 9s 6s 13 16 mph 1017.5mb 80f 78f
2:50pm 6ft 10s 6s 16 20 mph 1018.2mb 80f 78f
1:50pm 6ft 9s 6s 16 18 mph 1018.5mb 80f 78f
12:50pm 6ft 9s 6s 18 22 mph 1017.9mb 80f 78f
11:50am 5.5ft 9s 6s 18 20 mph 1017.2mb 80f 78f
10:50am 6ft 9s 6s 18 22 mph 1016.3mb 80f 78f
9:50am 5.5ft 9s 6s 20 25 mph 1015.4mb 80f 78f
8:50am 5ft 9s 6s 20 22 mph 1015.1mb 80f 78f
7:50am 5.5ft 8s 6s 20 22 mph 1014.8mb 80f 78f
6:50am 5ft 9s 6s 18 20 mph 1014.9mb 80f 78f
5:50am 5ft 9s 6s 18 20 mph 1015mb 80f 78f
4:50am 5ft 9s 6s 18 20 mph 1015.1mb 80f 78f
3:50am 5ft 9s 6s 16 18 mph 1015.2mb 80f 78f
2:50am 4.5ft 9s 6s 13 18 mph 1015.4mb 80f 78f
1:50am 5ft 10s 7s 16 20 mph 1015.4mb 80f 78f
12:50am 5ft 10s 6s 16 18 mph 1015mb 80f 78f
Mon 12/15 11:50pm 4.5ft 9s 7s 16 20 mph 1014.6mb 80f 77f
10:50pm 5ft 9s 7s 11 13 mph 1014.4mb 80f 76f
9:50pm 4.5ft 9s 7s 16 18 mph 1013.6mb 80f 76f
8:50pm 4.5ft 10s 7s 9 13 mph 1013.6mb 80f 75f
7:50pm 5ft 10s 7s 7 9 mph 1013.1mb 80f 74f
6:50pm 5ft 8s 7s 4 7 mph 1012.9mb 81f 71f
5:50pm 5ft 10s 7s 9 11 mph 1012.5mb 81f 75f
4:50pm 5ft 9s 7s 9 11 mph 1013mb 81f 78f
3:50pm 5.5ft 10s 7s 11 13 mph 1013.1mb 81f 77f
2:50pm 5ft 9s 7s 9 11 mph 1014.2mb 81f 77f
1:50pm 5ft 8s 6s 11 16 mph 1014mb 81f 76f
12:50pm 5ft 10s 7s 13 18 mph 1013.7mb 81f 76f
11:50am 5ft 9s 8s 16 18 mph 1012.4mb 81f 76f
10:50am 5ft 10s 7s 9 11 mph 1012.2mb 80f 76f
9:50am 5ft 10s 7s 7 9 mph 1012.1mb 80f 75f
8:50am 5ft 11s 7s 7 9 mph 1011.5mb 80f 73f
7:50am 5.5ft 16s 7s 4 7 mph 1011.9mb 80f 73f
6:50am 6ft 16s 7s 7 9 mph 1011.8mb 80f 72f
5:50am 6.5ft 10s 7s 11 16 mph 1012.1mb 81f 73f
4:50am 6ft 10s 6s 9 13 mph 1012.2mb 81f 73f
3:50am 6ft 10s 6s 20 25 mph 1011.6mb 81f 75f
2:50am 6ft 11s 6s 18 20 mph 1011.6mb 81f 80f
1:50am 6ft 9s 6s 18 20 mph 1012.1mb 81f 80f
12:50am 6ft 11s 6s 18 22 mph 1011.7mb 81f 80f
Sun 12/14 11:50pm 6.5ft 10s 6s 16 18 mph 1011.7mb 81f 80f
10:50pm 6ft 11s 6s 16 18 mph 1011.5mb 81f 80f
9:50pm 6ft 11s 7s 18 22 mph 1010.7mb 81f 79f
8:50pm 6ft 11s 7s 18 22 mph 1010.6mb 81f 79f
7:50pm 6ft 11s 7s 18 22 mph 1010.3mb 81f 79f
6:50pm 7ft 11s 8s 18 20 mph 1010.7mb 81f 79f
5:50pm 6.5ft 11s 8s 16 18 mph 1011.5mb 81f 79f
4:50pm 7ft 17s 8s 13 18 mph 1012.1mb 80f 79f
3:50pm 7ft 17s 8s 16 20 mph 1012.8mb 80f 79f
2:50pm 7ft 11s 8s 13 16 mph 1013.5mb 80f 79f
1:50pm 7ft 17s 9s 13 18 mph 1013.7mb 80f 78f
12:50pm 7ft 11s 9s 13 16 mph 1013.6mb 80f 78f
11:50am 7ft 11s 9s 11 13 mph 1013.2mb 80f 78f
10:50am 7.5ft 11s 9s 9 11 mph 1012.8mb 80f 78f
9:50am 7ft 10s 9s 9 13 mph 1012.6mb 80f 78f
8:50am 7ft 11s 9s 11 13 mph 1012.2mb 80f 78f
7:50am 8ft 11s 9s 7 9 mph 1012mb 80f 78f
6:50am 7ft 11s 9s 9 11 mph 1011.9mb 80f 78f
5:50am 8ft 11s 9s 9 11 mph 1012.6mb 80f 78f
4:50am 7.5ft 11s 9s 9 11 mph 1013.4mb 80f 78f
3:50am 7ft 11s 9s 11 13 mph 1013.6mb 80f 78f
2:50am 8ft 17s 9s 11 13 mph 1014mb 80f 78f
1:50am 7.5ft 11s 9s 11 13 mph 1014.3mb 80f 78f
12:50am 8ft 11s 9s 11 16 mph 1014.3mb 80f 78f
Sat 12/13 11:50pm 7.5ft 11s 9s 11 13 mph 1014.2mb 80f 78f
10:50pm 8ft 10s 9s 11 13 mph 1013.8mb 81f 78f
9:50pm 7ft 11s 9s 9 13 mph 1013.8mb 80f 78f
8:50pm 8ft 11s 9s 9 11 mph 1013.6mb 80f 78f